KLZZ

Details ICAO KLZZ
Name LAMPASAS
Region United States
Timezone America/Chicago (UTC-5.0)
Plans Departing 1
Arriving 6
Stats Elevation 1,215 ft / 370 m (AMSL)
Location 31.106195° -98.195893°
Runways 1
Magnetic Variation 4.059° E
Sunrise 2018-05-26 11:32:58 UTC / 2018-05-26 06:32:58 Local
Sunset 2018-05-27 01:29:37 UTC / 2018-05-26 20:29:37 Local
Advertisement - Login to hide

Runways

ID Width Length Bearing (true) Bearing (mag) Surface Threshold Offset Overrun Length
16 75 ft / 23 m 4,213 ft / 1,284 m 170.76° 166.70° Asphalt 0 ft / 0 m 0 ft / 0 m
34 75 ft / 23 m 4,213 ft / 1,284 m 350.77° 346.71° Asphalt 0 ft / 0 m 0 ft / 0 m

Map

Weather


0- 5 10 15 20 25 30 35+ Temperature / ° C

Clouds and Precipitation
Forecast for 2018-05-27 00:00 UTC. Updated 39 minutes ago

Ground ~20,000 ft ~40,000 ft Winds

METAR

KLZZ 262335Z AUTO 16005KT 10SM CLR 35/18 A2975 RMK AO2 T03460182

TAF

Not found

Frequencies

Recorded 119.07 MHz AWOS 3
Approach 120.07 MHz GRAY APP/DEP
Unicom 122.80 MHz CTAF/UNICOM
Warning: Do not use this data for real-world aviation or navigation. No guarantee of current accuracy is given.